createdAt,value
2022-11-24T00:00:28.985Z,99912.25
2022-11-24T00:01:32.189Z,99909.31
2022-11-24T00:02:34.671Z,99918.16
2022-11-24T00:03:37.165Z,99912.81
2022-11-24T00:04:39.391Z,99908.25
2022-11-24T00:05:41.573Z,99916.47
2022-11-24T00:06:43.732Z,99911.03
2022-11-24T00:07:45.945Z,99916.28
2022-11-24T00:08:48.357Z,99920.34
2022-11-24T00:09:50.715Z,99908.84
2022-11-24T00:10:52.881Z,99914.88
2022-11-24T00:11:55.067Z,99923.03
2022-11-24T00:12:57.295Z,99922.09
2022-11-24T00:14:00.522Z,99918.53
2022-11-24T00:15:02.814Z,99916.84
2022-11-24T00:16:13.066Z,99922.28
2022-11-24T00:17:15.472Z,99912.56
2022-11-24T00:18:17.623Z,99917.69
2022-11-24T00:19:20.216Z,99920.72
2022-11-24T00:20:22.522Z,99917.31
2022-11-24T00:21:26.171Z,99919.22
2022-11-24T00:22:28.509Z,99917.53
2022-11-24T00:23:30.710Z,99916.03
2022-11-24T00:24:33.238Z,99906.91
2022-11-24T00:25:35.538Z,99912.84
2022-11-24T00:26:37.797Z,99911.69
2022-11-24T00:27:39.965Z,99907.41
2022-11-24T00:28:43.672Z,99906.63
2022-11-24T00:29:46.024Z,99907.28
2022-11-24T00:30:48.228Z,99900.88
2022-11-24T00:31:50.462Z,99894.59
2022-11-24T00:32:53.112Z,99899.88
2022-11-24T00:33:57.774Z,99906.88
2022-11-24T00:35:00.248Z,99907.16
2022-11-24T00:36:02.454Z,99911.28
2022-11-24T00:37:04.621Z,99910.28
2022-11-24T00:38:07.039Z,99913.81
2022-11-24T00:39:14.237Z,99909.47
2022-11-24T00:40:16.707Z,99911.72
2022-11-24T00:41:18.876Z,99910.06
2022-11-24T00:42:21.074Z,99913.38
2022-11-24T00:43:23.262Z,99914.97
2022-11-24T00:44:25.628Z,99915.31
2022-11-24T00:45:28.159Z,99915.09
2022-11-24T00:46:30.840Z,99909.78
2022-11-24T00:47:33.345Z,99912.53
2022-11-24T00:48:35.728Z,99913.28
2022-11-24T00:49:37.920Z,99908.63
2022-11-24T00:50:40.262Z,99904.31
2022-11-24T00:51:42.471Z,99914.16
2022-11-24T00:52:44.626Z,99911.47
2022-11-24T00:53:47.213Z,99912.84
2022-11-24T00:54:49.565Z,99915.75
2022-11-24T00:55:52.318Z,99915.78
2022-11-24T00:56:54.459Z,99915.88
2022-11-24T00:57:56.786Z,99915.84
2022-11-24T00:58:59.094Z,99915.31
2022-11-24T01:00:01.716Z,99913.72
2022-11-24T01:01:10.648Z,99912.19
2022-11-24T01:02:12.845Z,99918.19
2022-11-24T01:03:16.799Z,99912.13
2022-11-24T01:04:18.935Z,99915.66
2022-11-24T01:05:21.490Z,99911.25
2022-11-24T01:06:27.620Z,99915.59
2022-11-24T01:07:30.921Z,99917.09
2022-11-24T01:08:33.458Z,99908.19
2022-11-24T01:09:35.639Z,99915.88
2022-11-24T01:10:38.033Z,99914.09
2022-11-24T01:11:58.711Z,99919.34
2022-11-24T01:13:01.327Z,99921.72
2022-11-24T01:14:03.474Z,99931.16
2022-11-24T01:15:06.629Z,99926.31
2022-11-24T01:16:21.497Z,99930.31
2022-11-24T01:17:23.700Z,99926.19
2022-11-24T01:18:25.860Z,99930.09
2022-11-24T01:19:28.117Z,99933.66
2022-11-24T01:20:31.466Z,99925.72
2022-11-24T01:21:33.718Z,99929.94
2022-11-24T01:22:36.108Z,99926.25
2022-11-24T01:23:38.592Z,99932.13
2022-11-24T01:24:41.128Z,99925.00
2022-11-24T01:25:43.525Z,99928.63
2022-11-24T01:26:45.894Z,99936.66
2022-11-24T01:27:48.251Z,99933.09
2022-11-24T01:28:58.289Z,99930.75
2022-11-24T01:30:00.656Z,99936.19
2022-11-24T01:31:06.429Z,99935.19
2022-11-24T01:32:08.658Z,99932.69
2022-11-24T01:33:11.026Z,99933.50
2022-11-24T01:34:13.486Z,99928.97
2022-11-24T01:35:15.713Z,99934.84
2022-11-24T01:36:18.110Z,99931.97
2022-11-24T01:37:20.267Z,99936.28
2022-11-24T01:38:22.631Z,99938.81
2022-11-24T01:39:24.785Z,99928.53
2022-11-24T01:40:26.945Z,99923.22
2022-11-24T01:41:29.468Z,99928.06
2022-11-24T01:42:46.231Z,99930.78
2022-11-24T01:43:49.936Z,99932.59
2022-11-24T01:45:31.021Z,99925.72
2022-11-24T01:46:46.172Z,99935.34
2022-11-24T01:47:48.399Z,99938.72
2022-11-24T01:49:18.001Z,99932.25
2022-11-24T01:50:20.534Z,99929.34
2022-11-24T01:51:26.821Z,99925.81
2022-11-24T01:52:37.292Z,99927.75
2022-11-24T01:53:44.104Z,99927.06
2022-11-24T01:54:53.486Z,99930.81
2022-11-24T01:55:55.883Z,99933.44
2022-11-24T01:57:04.134Z,99933.44
2022-11-24T01:58:14.004Z,99932.66
2022-11-24T01:59:18.402Z,99934.56
2022-11-24T02:00:20.862Z,99929.13
2022-11-24T02:01:23.392Z,99937.06
2022-11-24T02:02:29.513Z,99935.31
2022-11-24T02:03:37.316Z,99928.03
2022-11-24T02:04:40.655Z,99928.72
2022-11-24T02:06:00.590Z,99937.19
2022-11-24T02:07:05.631Z,99930.06
2022-11-24T02:08:16.693Z,99934.69
2022-11-24T02:09:21.514Z,99927.56
2022-11-24T02:10:23.943Z,99935.38
2022-11-24T02:11:28.854Z,99935.25
2022-11-24T02:12:32.248Z,99935.38
2022-11-24T02:13:37.947Z,99941.94
2022-11-24T02:14:41.955Z,99955.19
2022-11-24T02:15:44.208Z,99945.34
2022-11-24T02:16:50.132Z,99946.31
2022-11-24T02:17:52.323Z,99948.81
2022-11-24T02:18:54.757Z,99945.22
2022-11-24T02:20:04.192Z,99947.81
2022-11-24T02:21:07.254Z,99944.38
2022-11-24T02:22:37.747Z,99946.38
2022-11-24T02:23:49.910Z,99942.22
2022-11-24T02:25:36.472Z,99950.25
2022-11-24T02:26:41.640Z,99951.03
2022-11-24T02:27:50.715Z,99953.41
2022-11-24T02:28:56.316Z,99954.38
2022-11-24T02:29:59.289Z,99951.50
2022-11-24T02:31:02.449Z,99957.59
2022-11-24T02:32:07.422Z,99953.16
2022-11-24T02:33:12.138Z,99957.59
2022-11-24T02:34:14.571Z,99959.38
2022-11-24T02:35:17.464Z,99960.28
2022-11-24T02:36:19.608Z,99959.16
2022-11-24T02:37:21.755Z,99957.44
2022-11-24T02:38:35.075Z,99962.66
2022-11-24T02:39:37.394Z,99951.13
2022-11-24T02:40:43.452Z,99960.81
2022-11-24T02:41:53.741Z,99966.09
2022-11-24T02:43:05.951Z,99966.22
2022-11-24T02:44:08.226Z,99964.53
2022-11-24T02:45:11.881Z,99961.81
2022-11-24T02:46:14.399Z,99960.94
2022-11-24T02:47:17.017Z,99968.00
2022-11-24T02:48:19.586Z,99968.88
2022-11-24T02:49:21.755Z,99970.56
2022-11-24T02:50:24.076Z,99969.81
2022-11-24T02:51:29.599Z,99964.56
2022-11-24T02:52:31.764Z,99969.81
2022-11-24T02:53:34.213Z,99964.53
2022-11-24T02:54:36.657Z,99968.78
2022-11-24T02:55:39.100Z,99964.91
2022-11-24T02:56:41.540Z,99975.31
2022-11-24T02:57:43.693Z,99973.44
2022-11-24T02:58:46.343Z,99975.22
2022-11-24T02:59:48.551Z,99974.28
2022-11-24T03:00:54.195Z,99980.66
2022-11-24T03:01:56.383Z,99979.06
2022-11-24T03:02:58.729Z,99978.22
2022-11-24T03:04:01.318Z,99980.03
2022-11-24T03:05:03.794Z,99979.19
2022-11-24T03:06:06.205Z,99979.19
2022-11-24T03:07:08.424Z,99985.13
2022-11-24T03:08:10.874Z,99984.28
2022-11-24T03:09:13.075Z,99984.28
2022-11-24T03:10:15.982Z,99992.31
2022-11-24T03:11:18.195Z,99982.59
2022-11-24T03:12:20.688Z,99985.19
2022-11-24T03:13:23.262Z,99984.41
2022-11-24T03:14:25.637Z,99985.38
2022-11-24T03:15:27.886Z,99983.56
2022-11-24T03:16:30.057Z,99979.19
2022-11-24T03:17:32.240Z,99976.72
2022-11-24T03:18:34.404Z,99967.94
2022-11-24T03:19:36.612Z,99977.66
2022-11-24T03:20:38.780Z,99970.59
2022-11-24T03:21:40.948Z,99981.75
2022-11-24T03:22:43.148Z,99985.00
2022-11-24T03:23:45.906Z,99982.56
2022-11-24T03:24:48.305Z,99981.13
2022-11-24T03:25:50.653Z,99978.03
2022-11-24T03:26:52.852Z,99973.66
2022-11-24T03:27:57.070Z,99977.13
2022-11-24T03:28:59.232Z,99980.47
2022-11-24T03:30:01.646Z,99982.13
2022-11-24T03:31:04.330Z,99975.97
2022-11-24T03:32:06.627Z,99974.28
2022-11-24T03:33:08.981Z,99982.19
2022-11-24T03:34:11.193Z,99974.16
2022-11-24T03:35:13.390Z,99972.44
2022-11-24T03:36:16.932Z,99980.06
2022-11-24T03:37:19.224Z,99981.72
2022-11-24T03:38:21.624Z,99978.25
2022-11-24T03:39:23.777Z,99980.19
2022-11-24T03:40:25.969Z,99983.78
2022-11-24T03:41:28.358Z,99979.53
2022-11-24T03:42:30.518Z,99989.31
2022-11-24T03:43:32.876Z,99985.00
2022-11-24T03:44:35.251Z,99992.09
2022-11-24T03:45:45.821Z,99988.59
2022-11-24T03:46:48.834Z,99983.28
2022-11-24T03:47:52.299Z,99985.97
2022-11-24T03:48:54.472Z,99987.75
2022-11-24T03:49:56.637Z,99994.00
2022-11-24T03:51:01.249Z,99991.38
2022-11-24T03:52:07.769Z,99988.81
2022-11-24T03:53:10.871Z,99980.91
2022-11-24T03:54:13.071Z,99981.75
2022-11-24T03:55:15.419Z,99984.41
2022-11-24T03:56:17.572Z,99983.53
2022-11-24T03:57:19.743Z,99987.03
2022-11-24T03:58:21.951Z,99987.16
2022-11-24T03:59:24.165Z,99986.34
2022-11-24T04:00:26.428Z,99989.97
2022-11-24T04:01:29.149Z,99981.09
2022-11-24T04:02:31.368Z,99989.88
2022-11-24T04:03:33.603Z,99987.25
2022-11-24T04:04:36.149Z,99985.53
2022-11-24T04:05:38.374Z,99984.63
2022-11-24T04:06:41.143Z,99985.56
2022-11-24T04:07:43.376Z,99991.75
2022-11-24T04:08:45.592Z,99988.25
2022-11-24T04:09:48.018Z,99983.97
2022-11-24T04:10:52.095Z,99991.00
2022-11-24T04:12:13.367Z,99995.56
2022-11-24T04:13:17.541Z,99989.31
2022-11-24T04:14:20.895Z,99999.03
2022-11-24T04:15:23.085Z,99993.88
2022-11-24T04:16:25.529Z,99985.00
2022-11-24T04:17:28.769Z,99983.19
2022-11-24T04:18:31.269Z,99982.94
2022-11-24T04:19:33.633Z,99980.97
2022-11-24T04:20:35.894Z,99984.34
2022-11-24T04:21:38.052Z,99986.06
2022-11-24T04:22:40.845Z,99979.94
2022-11-24T04:23:43.008Z,99984.59
2022-11-24T04:24:45.388Z,99990.16
2022-11-24T04:25:47.698Z,99997.22
2022-11-24T04:26:49.888Z,99988.41
2022-11-24T04:27:54.159Z,99988.41
2022-11-24T04:28:56.347Z,99992.84
2022-11-24T04:29:58.541Z,99992.94
2022-11-24T04:31:04.871Z,99994.81
2022-11-24T04:32:07.095Z,99998.50
2022-11-24T04:33:09.294Z,99995.84
2022-11-24T04:34:11.695Z,99996.66
2022-11-24T04:35:14.306Z,100013.44
2022-11-24T04:36:16.730Z,100007.34
2022-11-24T04:37:19.114Z,100005.63
2022-11-24T04:39:24.246Z,100014.44
2022-11-24T04:39:44.858Z,100010.97
2022-11-24T04:40:47.389Z,100016.22
2022-11-24T04:41:49.743Z,100017.91
2022-11-24T04:42:54.241Z,100016.22
2022-11-24T04:43:56.496Z,100031.28
2022-11-24T04:44:58.749Z,100025.94
2022-11-24T04:46:01.693Z,100021.50
2022-11-24T04:47:04.391Z,100025.94
2022-11-24T04:48:06.592Z,100025.97
2022-11-24T04:49:11.683Z,100032.16
2022-11-24T04:50:14.089Z,100031.38
2022-11-24T04:51:16.326Z,100039.31
2022-11-24T04:52:20.576Z,100037.50
2022-11-24T04:53:22.942Z,100042.72
2022-11-24T04:54:25.158Z,100035.78
2022-11-24T04:55:27.633Z,100041.25
2022-11-24T04:56:29.816Z,100033.56
2022-11-24T04:57:33.228Z,100042.34
2022-11-24T04:58:35.890Z,100042.41
2022-11-24T04:59:38.077Z,100044.25
2022-11-24T05:00:41.217Z,100042.53
2022-11-24T05:01:44.851Z,100046.16
2022-11-24T05:02:47.444Z,100047.97
2022-11-24T05:03:49.667Z,100048.00
2022-11-24T05:04:51.903Z,100046.09
2022-11-24T05:05:54.283Z,100054.03
2022-11-24T05:06:56.505Z,100041.81
2022-11-24T05:07:59.945Z,100049.72
2022-11-24T05:09:02.171Z,100047.97
2022-11-24T05:10:22.950Z,100048.81
2022-11-24T05:11:25.143Z,100049.66
2022-11-24T05:12:31.199Z,100055.59
2022-11-24T05:13:34.078Z,100049.25
2022-11-24T05:14:39.435Z,100049.16
2022-11-24T05:15:42.453Z,100052.66
2022-11-24T05:16:44.993Z,100057.16
2022-11-24T05:17:47.258Z,100054.59
2022-11-24T05:18:49.806Z,100058.16
2022-11-24T05:19:51.976Z,100051.91
2022-11-24T05:20:54.175Z,100051.03
2022-11-24T05:21:58.022Z,100055.53
2022-11-24T05:23:05.196Z,100059.13
2022-11-24T05:24:07.657Z,100053.00
2022-11-24T05:25:10.328Z,100056.66
2022-11-24T05:26:12.752Z,100062.84
2022-11-24T05:27:15.142Z,100070.69
2022-11-24T05:28:18.491Z,100068.91
2022-11-24T05:29:20.834Z,100061.13
2022-11-24T05:30:23.025Z,100065.66
2022-11-24T05:31:25.241Z,100071.91
2022-11-24T05:32:27.404Z,100073.63
2022-11-24T05:33:33.221Z,100074.44
2022-11-24T05:34:35.715Z,100074.31
2022-11-24T05:35:38.198Z,100078.53
2022-11-24T05:36:52.893Z,100081.97
2022-11-24T05:37:55.209Z,100081.84
2022-11-24T05:38:57.793Z,100082.84
2022-11-24T05:39:59.974Z,100084.84
2022-11-24T05:41:04.342Z,100079.47
2022-11-24T05:42:26.546Z,100085.66
2022-11-24T05:43:29.211Z,100095.41
2022-11-24T05:44:32.103Z,100084.06
2022-11-24T05:45:34.574Z,100097.28
2022-11-24T05:46:37.035Z,100092.09
2022-11-24T05:47:40.635Z,100084.97
2022-11-24T05:48:42.806Z,100085.72
2022-11-24T05:49:45.444Z,100094.41
2022-11-24T05:50:54.645Z,100089.97
2022-11-24T05:51:56.835Z,100088.09
2022-11-24T05:53:09.452Z,100090.63
2022-11-24T05:54:11.800Z,100098.50
2022-11-24T05:55:15.330Z,100095.03
2022-11-24T05:56:17.523Z,100097.69
2022-11-24T05:57:19.753Z,100096.94
2022-11-24T05:58:21.928Z,100100.34
2022-11-24T05:59:24.351Z,100106.63
2022-11-24T06:00:27.262Z,100105.66
2022-11-24T06:01:29.500Z,100109.06
2022-11-24T06:02:32.237Z,100107.22
2022-11-24T06:03:34.683Z,100109.19
2022-11-24T06:04:37.599Z,100109.13
2022-11-24T06:05:40.199Z,100116.13
2022-11-24T06:06:42.429Z,100110.84
2022-11-24T06:07:44.969Z,100122.25
2022-11-24T06:08:47.427Z,100122.59
2022-11-24T06:09:49.790Z,100117.25
2022-11-24T06:10:51.943Z,100124.22
2022-11-24T06:11:54.344Z,100125.03
2022-11-24T06:12:57.011Z,100124.91
2022-11-24T06:13:59.237Z,100123.09
2022-11-24T06:15:01.986Z,100131.91
2022-11-24T06:16:04.445Z,100127.53
2022-11-24T06:17:07.131Z,100134.63
2022-11-24T06:18:09.372Z,100139.16
2022-11-24T06:19:11.868Z,100137.66
2022-11-24T06:20:14.208Z,100136.72
2022-11-24T06:21:17.292Z,100131.44
2022-11-24T06:22:19.822Z,100133.13
2022-11-24T06:23:21.991Z,100141.91
2022-11-24T06:24:24.442Z,100138.28
2022-11-24T06:25:27.628Z,100130.22
2022-11-24T06:26:29.821Z,100144.53
2022-11-24T06:27:32.386Z,100145.41
2022-11-24T06:28:34.897Z,100141.88
2022-11-24T06:29:37.095Z,100145.50
2022-11-24T06:30:39.464Z,100153.41
2022-11-24T06:31:41.796Z,100149.81
2022-11-24T06:32:49.448Z,100150.59
2022-11-24T06:33:54.332Z,100152.50
2022-11-24T06:34:56.520Z,100158.63
2022-11-24T06:36:01.899Z,100155.25
2022-11-24T06:37:04.113Z,100156.19
2022-11-24T06:38:09.089Z,100153.50
2022-11-24T06:39:11.560Z,100156.72
2022-11-24T06:40:13.984Z,100159.13
2022-11-24T06:41:16.972Z,100162.56
2022-11-24T06:42:19.330Z,100161.44
2022-11-24T06:43:23.263Z,100165.00
2022-11-24T06:44:25.476Z,100160.19
2022-11-24T06:45:27.960Z,100164.06
2022-11-24T06:46:31.576Z,100161.69
2022-11-24T06:47:33.801Z,100162.78
2022-11-24T06:48:36.371Z,100165.50
2022-11-24T06:49:38.562Z,100164.59
2022-11-24T06:50:40.937Z,100174.34
2022-11-24T06:51:43.234Z,100161.47
2022-11-24T06:52:45.408Z,100170.31
2022-11-24T06:53:47.787Z,100169.28
2022-11-24T06:54:49.950Z,100168.31
2022-11-24T06:55:53.218Z,100157.72
2022-11-24T06:56:59.553Z,100164.72
2022-11-24T06:58:01.723Z,100163.78
2022-11-24T06:59:04.225Z,100169.06
2022-11-24T07:00:07.946Z,100159.34
2022-11-24T07:01:14.245Z,100160.22
2022-11-24T07:02:16.485Z,100161.97
2022-11-24T07:03:19.611Z,100164.59
2022-11-24T07:04:21.877Z,100167.25
2022-11-24T07:05:24.286Z,100173.53
2022-11-24T07:06:28.632Z,100167.28
2022-11-24T07:07:30.896Z,100172.56
2022-11-24T07:08:33.307Z,100181.44
2022-11-24T07:09:35.486Z,100176.38
2022-11-24T07:10:37.905Z,100182.75
2022-11-24T07:11:41.219Z,100180.00
2022-11-24T07:12:43.465Z,100186.16
2022-11-24T07:13:46.479Z,100194.94
2022-11-24T07:14:48.700Z,100194.91
2022-11-24T07:15:51.010Z,100189.63
2022-11-24T07:16:53.661Z,100191.31
2022-11-24T07:17:56.115Z,100184.28
2022-11-24T07:18:58.606Z,100186.88
2022-11-24T07:20:00.794Z,100189.56
2022-11-24T07:21:05.878Z,100185.28
2022-11-24T07:22:08.202Z,100188.81
2022-11-24T07:23:10.494Z,100191.41
2022-11-24T07:24:12.947Z,100187.16
2022-11-24T07:25:15.259Z,100190.69
2022-11-24T07:26:18.462Z,100190.66
2022-11-24T07:27:20.668Z,100187.16
2022-11-24T07:28:22.904Z,100192.38
2022-11-24T07:29:25.113Z,100188.84
2022-11-24T07:30:28.550Z,100199.34
2022-11-24T07:31:31.044Z,100206.41
2022-11-24T07:32:33.654Z,100196.78
2022-11-24T07:33:36.774Z,100201.16
2022-11-24T07:34:38.942Z,100195.84
2022-11-24T07:35:41.508Z,100202.84
2022-11-24T07:36:45.304Z,100210.72
2022-11-24T07:37:47.519Z,100207.22
2022-11-24T07:38:50.395Z,100208.91
2022-11-24T07:39:52.570Z,100203.59
2022-11-24T07:40:55.062Z,100206.19
2022-11-24T07:41:59.461Z,100200.00
2022-11-24T07:43:01.767Z,100214.91
2022-11-24T07:44:05.929Z,100212.28
2022-11-24T07:45:08.449Z,100212.31
2022-11-24T07:46:13.404Z,100214.00
2022-11-24T07:47:16.097Z,100212.22
2022-11-24T07:48:18.295Z,100212.13
2022-11-24T07:49:20.552Z,100216.44
2022-11-24T07:50:22.760Z,100213.75
2022-11-24T07:51:24.955Z,100218.16
2022-11-24T07:52:27.771Z,100222.59
2022-11-24T07:53:30.792Z,100227.09
2022-11-24T07:54:33.428Z,100222.63
2022-11-24T07:55:36.011Z,100216.44
2022-11-24T07:56:38.155Z,100213.69
2022-11-24T07:57:41.240Z,100220.63
2022-11-24T07:58:45.949Z,100208.41
2022-11-24T07:59:50.577Z,100216.38
2022-11-24T08:00:53.096Z,100215.34
2022-11-24T08:01:55.266Z,100208.09
2022-11-24T08:02:57.849Z,100209.59
2022-11-24T08:04:01.778Z,100212.25
2022-11-24T08:05:04.316Z,100216.72
2022-11-24T08:06:24.096Z,100214.78
2022-11-24T08:07:29.254Z,100214.03
2022-11-24T08:08:34.353Z,100217.81
2022-11-24T08:09:36.570Z,100219.44
2022-11-24T08:10:38.714Z,100213.31
2022-11-24T08:11:41.529Z,100207.88
2022-11-24T08:12:44.003Z,100210.47
2022-11-24T08:13:46.501Z,100212.09
2022-11-24T08:14:50.364Z,100210.38
2022-11-24T08:15:52.708Z,100203.22
2022-11-24T08:16:55.209Z,100213.72
2022-11-24T08:18:01.390Z,100199.72
2022-11-24T08:19:03.570Z,100210.22
2022-11-24T08:20:06.654Z,100208.34
2022-11-24T08:21:13.165Z,100219.56
2022-11-24T08:22:15.579Z,100216.88
2022-11-24T08:23:17.792Z,100214.22
2022-11-24T08:24:20.003Z,100214.97
2022-11-24T08:25:25.143Z,100213.19
2022-11-24T08:26:28.293Z,100218.16
2022-11-24T08:27:30.953Z,100213.66
2022-11-24T08:28:33.306Z,100211.88
2022-11-24T08:29:35.523Z,100211.09
2022-11-24T08:30:37.743Z,100219.59
2022-11-24T08:31:40.013Z,100218.66
2022-11-24T08:32:42.639Z,100217.72
2022-11-24T08:33:44.880Z,100216.84
2022-11-24T08:34:47.074Z,100218.41
2022-11-24T08:35:49.462Z,100215.84
2022-11-24T08:36:52.348Z,100217.38
2022-11-24T08:37:57.291Z,100212.09
2022-11-24T08:39:03.448Z,100216.59
2022-11-24T08:40:06.276Z,100208.44
2022-11-24T08:41:10.924Z,100210.22
2022-11-24T08:42:13.106Z,100210.91
2022-11-24T08:43:15.461Z,100209.78
2022-11-24T08:44:18.352Z,100204.38
2022-11-24T08:45:22.446Z,100204.25
2022-11-24T08:46:25.491Z,100212.59
2022-11-24T08:47:27.924Z,100208.00
2022-11-24T08:48:30.948Z,100205.00
2022-11-24T08:49:33.125Z,100212.75
2022-11-24T08:50:37.485Z,100215.50
2022-11-24T08:51:39.694Z,100215.28
2022-11-24T08:52:42.430Z,100222.09
2022-11-24T08:53:44.819Z,100220.94
2022-11-24T08:54:47.494Z,100226.94
2022-11-24T08:55:50.092Z,100228.69
2022-11-24T08:56:52.472Z,100231.56
2022-11-24T08:57:54.705Z,100233.50
2022-11-24T08:58:57.698Z,100227.28
2022-11-24T08:59:59.906Z,100230.81
2022-11-24T09:01:14.164Z,100231.22
2022-11-24T09:02:16.480Z,100228.72
2022-11-24T09:03:19.058Z,100235.72
2022-11-24T09:04:21.243Z,100237.47
2022-11-24T09:05:51.231Z,100242.66
2022-11-24T09:06:49.827Z,100250.25
2022-11-24T09:07:52.096Z,100249.94
2022-11-24T09:08:55.005Z,100240.69
2022-11-24T09:09:57.231Z,100245.69
2022-11-24T09:11:04.423Z,100249.09
2022-11-24T09:12:14.348Z,100249.00
2022-11-24T09:13:17.059Z,100248.09
2022-11-24T09:14:19.421Z,100253.16
2022-11-24T09:15:21.900Z,100247.84
2022-11-24T09:16:27.207Z,100252.13
2022-11-24T09:17:29.729Z,100242.41
2022-11-24T09:18:31.918Z,100252.25
2022-11-24T09:19:34.642Z,100249.50
2022-11-24T09:20:37.002Z,100243.19
2022-11-24T09:21:39.263Z,100250.19
2022-11-24T09:22:43.054Z,100246.66
2022-11-24T09:23:47.445Z,100251.72
2022-11-24T09:24:49.697Z,100246.34
2022-11-24T09:25:51.849Z,100246.13
2022-11-24T09:26:55.479Z,100243.13
2022-11-24T09:27:59.909Z,100244.97
2022-11-24T09:29:05.459Z,100248.47
2022-11-24T09:30:08.446Z,100239.25
2022-11-24T09:31:12.876Z,100248.94
2022-11-24T09:32:15.204Z,100247.97
2022-11-24T09:33:17.568Z,100253.06
2022-11-24T09:34:19.957Z,100243.38
2022-11-24T09:35:22.220Z,100248.69
2022-11-24T09:36:24.784Z,100250.41
2022-11-24T09:37:32.437Z,100248.41
2022-11-24T09:38:35.558Z,100240.22
2022-11-24T09:39:37.775Z,100250.75
2022-11-24T09:40:39.946Z,100239.91
2022-11-24T09:41:54.046Z,100243.59
2022-11-24T09:43:06.895Z,100245.44
2022-11-24T09:44:33.324Z,100249.75
2022-11-24T09:47:09.719Z,100250.44
2022-11-24T09:48:22.819Z,100255.72
2022-11-24T09:49:37.114Z,100250.53
2022-11-24T09:50:39.777Z,100255.00
2022-11-24T09:51:47.052Z,100249.69
2022-11-24T09:53:26.917Z,100261.34
2022-11-24T09:54:30.978Z,100250.53
2022-11-24T09:55:33.167Z,100252.41
2022-11-24T09:56:40.578Z,100251.38
2022-11-24T09:57:43.940Z,100259.09
2022-11-24T09:58:50.683Z,100255.22
2022-11-24T09:59:55.667Z,100252.53
2022-11-24T10:00:58.686Z,100256.03
2022-11-24T10:02:03.392Z,100255.50
2022-11-24T10:03:07.153Z,100267.06
2022-11-24T10:04:39.911Z,100269.94
2022-11-24T10:05:43.273Z,100265.63
2022-11-24T10:06:55.380Z,100266.56
2022-11-24T10:08:20.061Z,100270.69
2022-11-24T10:09:55.081Z,100274.00
2022-11-24T10:10:59.848Z,100276.47
2022-11-24T10:12:19.961Z,100285.31
2022-11-24T10:13:46.737Z,100276.84
2022-11-24T10:15:25.486Z,100277.75
2022-11-24T10:16:46.068Z,100270.63
2022-11-24T10:18:07.683Z,100269.84
2022-11-24T10:19:37.458Z,100272.47
2022-11-24T10:21:09.631Z,100269.94
2022-11-24T10:22:14.668Z,100266.16
2022-11-24T10:23:42.235Z,100266.97
2022-11-24T10:25:19.150Z,100268.34
2022-11-24T10:26:46.927Z,100267.38
2022-11-24T10:27:56.211Z,100261.31
2022-11-24T10:28:58.386Z,100267.69
2022-11-24T10:30:01.482Z,100271.34
2022-11-24T10:31:24.443Z,100266.34
2022-11-24T10:32:29.838Z,100272.53
2022-11-24T10:33:32.301Z,100269.88
2022-11-24T10:34:40.128Z,100274.47
2022-11-24T10:36:07.787Z,100273.44
2022-11-24T10:37:40.618Z,100280.56
2022-11-24T10:38:52.778Z,100269.88
2022-11-24T10:40:05.260Z,100267.19
2022-11-24T10:41:13.310Z,100270.03
2022-11-24T10:42:26.073Z,100270.63
2022-11-24T10:43:28.838Z,100266.69
2022-11-24T10:44:31.235Z,100264.63
2022-11-24T10:45:33.503Z,100262.00
2022-11-24T10:46:39.484Z,100263.69
2022-11-24T10:47:43.310Z,100261.97
2022-11-24T10:48:52.639Z,100261.81
2022-11-24T10:50:13.150Z,100256.38
2022-11-24T10:51:27.584Z,100261.41
2022-11-24T10:52:36.715Z,100259.41
2022-11-24T10:53:41.415Z,100259.03
2022-11-24T10:55:01.320Z,100265.88
2022-11-24T10:56:05.343Z,100270.91
2022-11-24T10:57:08.249Z,100266.72
2022-11-24T10:58:17.429Z,100263.16
2022-11-24T10:59:26.019Z,100260.47
2022-11-24T11:00:33.531Z,100269.44
2022-11-24T11:01:35.897Z,100264.34
2022-11-24T11:02:39.972Z,100267.91
2022-11-24T11:03:53.874Z,100264.06
2022-11-24T11:04:56.300Z,100261.97
2022-11-24T11:06:11.796Z,100265.59
2022-11-24T11:07:21.567Z,100267.72
2022-11-24T11:08:29.510Z,100266.75
2022-11-24T11:09:31.784Z,100272.16
2022-11-24T11:10:34.323Z,100266.91
2022-11-24T11:11:39.904Z,100262.75
2022-11-24T11:12:44.650Z,100257.13
2022-11-24T11:14:09.546Z,100264.03
2022-11-24T11:15:30.816Z,100263.72
2022-11-24T11:16:40.291Z,100261.69
2022-11-24T11:17:44.260Z,100261.69
2022-11-24T11:18:49.513Z,100264.88
2022-11-24T11:19:58.454Z,100265.16
2022-11-24T11:21:05.523Z,100264.84
2022-11-24T11:22:31.030Z,100263.34
2022-11-24T11:23:36.072Z,100260.91
2022-11-24T11:24:40.625Z,100260.91
2022-11-24T11:25:43.771Z,100268.06
2022-11-24T11:26:46.212Z,100261.09
2022-11-24T11:27:48.900Z,100268.13
2022-11-24T11:34:57.609Z,100258.06
2022-11-24T11:36:10.807Z,100257.31
2022-11-24T11:37:15.373Z,100262.09
2022-11-24T11:38:18.870Z,100263.03
2022-11-24T11:39:29.867Z,100263.72
2022-11-24T11:40:32.396Z,100266.25
2022-11-24T11:41:40.341Z,100262.94
2022-11-24T11:43:03.910Z,100266.13
2022-11-24T11:44:29.501Z,100261.84
2022-11-24T11:45:45.178Z,100260.84
2022-11-24T11:46:47.588Z,100261.69
2022-11-24T11:47:52.737Z,100271.41
2022-11-24T11:48:55.121Z,100261.13
2022-11-24T11:49:57.747Z,100266.56
2022-11-24T11:51:32.194Z,100268.06
2022-11-24T11:52:52.749Z,100264.97
2022-11-24T11:54:22.294Z,100267.44
2022-11-24T11:55:37.081Z,100265.53
2022-11-24T11:56:52.966Z,100268.00
2022-11-24T11:58:14.132Z,100260.88
2022-11-24T11:59:31.637Z,100266.63
2022-11-24T12:00:39.679Z,100262.41
2022-11-24T12:01:49.825Z,100266.81
2022-11-24T12:03:24.122Z,100260.22
2022-11-24T12:04:44.756Z,100268.66
2022-11-24T12:05:52.629Z,100261.34
2022-11-24T12:07:02.291Z,100255.50
2022-11-24T12:08:24.553Z,100262.09
2022-11-24T12:09:36.271Z,100261.72
2022-11-24T12:11:02.937Z,100260.00
2022-11-24T12:12:26.200Z,100259.06
2022-11-24T12:13:43.528Z,100253.13
2022-11-24T12:15:11.354Z,100255.13
2022-11-24T12:16:27.803Z,100257.97
2022-11-24T12:17:41.711Z,100263.63
2022-11-24T12:19:01.005Z,100275.06
2022-11-24T12:20:41.650Z,100277.22
2022-11-24T12:22:09.388Z,100266.38
2022-11-24T12:23:40.716Z,100274.50
2022-11-24T12:24:53.123Z,100271.63
2022-11-24T12:26:06.142Z,100274.13
2022-11-24T12:27:23.272Z,100275.69
2022-11-24T12:28:46.719Z,100272.88
2022-11-24T12:30:03.991Z,100279.00
2022-11-24T12:31:08.211Z,100275.44
2022-11-24T12:32:34.670Z,100273.44
2022-11-24T12:33:50.960Z,100279.25
2022-11-24T12:35:03.512Z,100273.03
2022-11-24T12:36:21.207Z,100279.28
2022-11-24T12:37:45.627Z,100273.31
2022-11-24T12:38:56.641Z,100283.72
2022-11-24T12:40:14.758Z,100284.25
2022-11-24T12:42:55.095Z,100278.66
2022-11-24T12:44:00.041Z,100282.94
2022-11-24T12:45:48.476Z,100282.09
2022-11-24T12:47:01.077Z,100284.66
2022-11-24T12:48:28.703Z,100291.31